createdAt,value
2019-05-30T00:02:06.144Z,0.77
2019-05-30T00:04:34.133Z,1.03
2019-05-30T00:07:02.523Z,0.70
2019-05-30T00:09:30.753Z,0.80
2019-05-30T00:11:58.843Z,0.80
2019-05-30T00:14:26.979Z,0.80
2019-05-30T00:16:55.056Z,0.90
2019-05-30T00:19:24.417Z,0.80
2019-05-30T00:21:52.436Z,0.70
2019-05-30T00:24:20.551Z,0.70
2019-05-30T00:26:48.685Z,0.90
2019-05-30T00:29:16.731Z,0.73
2019-05-30T00:31:44.864Z,0.73
2019-05-30T00:34:12.929Z,0.90
2019-05-30T00:36:41.006Z,0.90
2019-05-30T00:39:09.082Z,0.60
2019-05-30T00:41:37.189Z,0.97
2019-05-30T00:44:06.270Z,0.70
2019-05-30T00:46:34.481Z,0.70
2019-05-30T00:49:02.579Z,0.80
2019-05-30T00:51:30.590Z,0.87
2019-05-30T00:53:58.649Z,0.80
2019-05-30T00:56:26.809Z,0.70
2019-05-30T00:58:54.944Z,0.80
2019-05-30T01:01:23.051Z,0.80
2019-05-30T01:03:51.107Z,0.83
2019-05-30T01:06:19.165Z,0.90
2019-05-30T01:08:47.158Z,0.80
2019-05-30T01:11:15.262Z,0.87
2019-05-30T01:13:43.336Z,0.73
2019-05-30T01:16:11.409Z,0.90
2019-05-30T01:18:39.444Z,0.90
2019-05-30T01:21:07.574Z,0.80
2019-05-30T01:23:38.802Z,1.00
2019-05-30T01:26:07.623Z,1.10
2019-05-30T01:28:35.687Z,1.10
2019-05-30T01:31:08.098Z,1.00
2019-05-30T01:33:33.581Z,1.03
2019-05-30T01:36:01.740Z,1.10
2019-05-30T01:38:29.783Z,0.80
2019-05-30T01:40:57.853Z,0.73
2019-05-30T01:43:25.928Z,0.80
2019-05-30T01:45:54.173Z,0.77
2019-05-30T01:48:22.286Z,0.77
2019-05-30T01:50:50.418Z,0.80
2019-05-30T01:53:18.453Z,0.80
2019-05-30T01:55:48.784Z,0.80
2019-05-30T01:58:16.256Z,0.80
2019-05-30T02:00:44.393Z,0.80
2019-05-30T02:03:12.488Z,0.80
2019-05-30T02:05:40.674Z,0.90
2019-05-30T02:08:10.099Z,0.90
2019-05-30T02:10:38.615Z,0.90
2019-05-30T02:13:07.544Z,0.70
2019-05-30T02:15:35.999Z,0.90
2019-05-30T02:18:04.128Z,0.80
2019-05-30T02:20:32.200Z,1.00
2019-05-30T02:23:00.302Z,1.10
2019-05-30T02:25:28.425Z,1.00
2019-05-30T02:27:56.574Z,1.07
2019-05-30T02:30:24.675Z,1.03
2019-05-30T02:32:52.786Z,1.20
2019-05-30T02:35:21.061Z,0.90
2019-05-30T02:37:49.131Z,0.83
2019-05-30T02:40:17.391Z,0.90
2019-05-30T02:42:45.511Z,0.90
2019-05-30T02:45:14.075Z,1.00
2019-05-30T02:47:42.164Z,1.10
2019-05-30T02:50:11.544Z,1.07
2019-05-30T02:52:39.969Z,0.80
2019-05-30T02:55:10.612Z,0.80
2019-05-30T02:57:37.973Z,0.93
2019-05-30T03:00:08.337Z,0.87
2019-05-30T03:02:36.873Z,0.80
2019-05-30T03:05:06.778Z,1.10
2019-05-30T03:07:34.969Z,0.97
2019-05-30T03:10:05.153Z,0.80
2019-05-30T03:12:33.539Z,0.77
2019-05-30T03:15:02.424Z,0.90
2019-05-30T03:17:31.380Z,1.30
2019-05-30T03:19:59.812Z,0.70
2019-05-30T03:22:27.853Z,0.90
2019-05-30T03:24:55.843Z,1.00
2019-05-30T03:27:24.034Z,1.10
2019-05-30T03:29:52.179Z,0.70
2019-05-30T03:34:50.084Z,1.00
2019-05-30T03:37:27.916Z,1.10
2019-05-30T03:39:47.904Z,0.90
2019-05-30T03:42:16.321Z,1.20
2019-05-30T03:44:44.621Z,1.00
2019-05-30T03:47:15.579Z,1.00
2019-05-30T03:49:45.630Z,0.90
2019-05-30T03:52:17.069Z,1.07
2019-05-30T03:54:45.041Z,1.10
2019-05-30T03:57:15.708Z,1.00
2019-05-30T03:59:47.926Z,0.93
2019-05-30T04:02:20.355Z,1.07
2019-05-30T04:04:54.239Z,0.93
2019-05-30T04:07:24.274Z,1.47
2019-05-30T04:09:54.320Z,1.20
2019-05-30T04:12:47.685Z,1.13
2019-05-30T04:15:21.768Z,1.00
2019-05-30T04:17:49.837Z,0.90
2019-05-30T04:20:22.531Z,1.33
2019-05-30T04:22:47.550Z,1.33
2019-05-30T04:25:16.724Z,1.10
2019-05-30T04:27:45.242Z,1.00
2019-05-30T04:30:14.394Z,1.10
2019-05-30T04:32:43.248Z,1.23
2019-05-30T04:35:14.551Z,0.90
2019-05-30T04:37:42.459Z,1.17
2019-05-30T04:40:11.744Z,0.93
2019-05-30T04:42:40.636Z,1.10
2019-05-30T04:45:09.717Z,1.20
2019-05-30T04:47:39.294Z,1.10
2019-05-30T04:50:07.837Z,1.00
2019-05-30T04:52:36.078Z,1.00
2019-05-30T04:55:04.159Z,1.20
2019-05-30T04:57:32.170Z,1.27
2019-05-30T05:00:00.164Z,1.47
2019-05-30T05:02:28.180Z,1.00
2019-05-30T05:04:56.338Z,1.00
2019-05-30T05:07:24.407Z,1.00
2019-05-30T05:09:52.666Z,1.40
2019-05-30T05:12:20.738Z,1.00
2019-05-30T05:14:48.849Z,1.30
2019-05-30T05:17:17.048Z,1.13
2019-05-30T05:19:45.194Z,1.07
2019-05-30T05:22:13.236Z,1.13
2019-05-30T05:24:41.262Z,1.20
2019-05-30T05:27:10.088Z,1.00
2019-05-30T05:29:38.346Z,0.90
2019-05-30T05:32:06.445Z,1.10
2019-05-30T05:34:34.795Z,1.00
2019-05-30T05:37:02.834Z,1.00
2019-05-30T05:39:30.939Z,1.00
2019-05-30T05:41:58.945Z,0.87
2019-05-30T05:44:27.008Z,0.70
2019-05-30T05:46:55.061Z,0.83
2019-05-30T05:49:23.064Z,1.10
2019-05-30T05:51:51.503Z,1.13
2019-05-30T05:54:20.785Z,0.90
2019-05-30T05:56:48.985Z,1.10
2019-05-30T05:59:17.124Z,0.90
2019-05-30T06:01:45.156Z,1.10
2019-05-30T06:04:13.830Z,0.80
2019-05-30T06:06:41.983Z,0.93
2019-05-30T06:09:09.953Z,0.80
2019-05-30T06:11:38.048Z,1.10
2019-05-30T06:14:06.194Z,1.00
2019-05-30T06:16:34.439Z,0.90
2019-05-30T06:19:02.451Z,0.90
2019-05-30T06:21:30.656Z,1.20
2019-05-30T06:23:58.614Z,1.00
2019-05-30T06:26:27.952Z,1.10
2019-05-30T06:28:56.093Z,1.20
2019-05-30T06:31:24.499Z,1.10
2019-05-30T06:33:53.052Z,1.10
2019-05-30T06:36:21.264Z,1.13
2019-05-30T06:38:49.435Z,1.13
2019-05-30T06:41:17.489Z,1.37
2019-05-30T06:43:45.646Z,1.27
2019-05-30T06:46:16.242Z,1.30
2019-05-30T06:48:44.286Z,1.20
2019-05-30T06:51:14.786Z,1.20
2019-05-30T06:53:42.873Z,1.10
2019-05-30T06:56:10.819Z,1.30
2019-05-30T06:58:48.482Z,1.07
2019-05-30T07:01:08.668Z,1.30
2019-05-30T07:03:36.755Z,1.27
2019-05-30T07:06:05.337Z,1.00
2019-05-30T07:08:33.760Z,1.20
2019-05-30T07:11:01.910Z,0.97
2019-05-30T07:13:31.483Z,1.17
2019-05-30T07:15:59.801Z,1.40
2019-05-30T07:18:31.099Z,1.10
2019-05-30T07:20:57.688Z,1.03
2019-05-30T07:23:25.900Z,1.13
2019-05-30T07:25:53.972Z,1.20
2019-05-30T07:28:23.698Z,1.23
2019-05-30T07:30:51.876Z,1.00
2019-05-30T07:33:20.118Z,1.00
2019-05-30T07:35:48.209Z,1.33
2019-05-30T07:38:16.421Z,1.10
2019-05-30T07:40:44.485Z,1.10
2019-05-30T07:43:12.648Z,1.20
2019-05-30T07:45:40.650Z,1.40
2019-05-30T07:48:08.685Z,1.43
2019-05-30T07:50:36.879Z,1.07
2019-05-30T07:53:04.964Z,1.40
2019-05-30T07:55:33.247Z,1.00
2019-05-30T07:58:01.846Z,1.00
2019-05-30T08:00:31.309Z,1.30
2019-05-30T08:02:59.807Z,1.20
2019-05-30T08:05:28.653Z,1.50
2019-05-30T08:07:57.284Z,1.30
2019-05-30T08:10:25.426Z,1.17
2019-05-30T08:12:54.007Z,1.50
2019-05-30T08:15:22.174Z,1.37
2019-05-30T08:17:53.151Z,1.10
2019-05-30T08:20:21.351Z,1.20
2019-05-30T08:22:49.459Z,1.30
2019-05-30T08:25:17.665Z,1.20
2019-05-30T08:27:48.436Z,1.07
2019-05-30T08:30:16.727Z,1.10
2019-05-30T08:32:44.790Z,1.30
2019-05-30T08:35:13.093Z,1.33
2019-05-30T08:37:41.171Z,1.30
2019-05-30T08:40:09.374Z,1.47
2019-05-30T08:42:38.500Z,1.63
2019-05-30T08:45:09.893Z,1.40
2019-05-30T08:47:38.611Z,1.23
2019-05-30T08:50:06.700Z,1.40
2019-05-30T08:52:34.713Z,1.30
2019-05-30T08:55:02.799Z,1.10
2019-05-30T08:57:32.281Z,1.20
2019-05-30T09:00:00.696Z,1.40
2019-05-30T09:02:28.802Z,1.10
2019-05-30T09:04:56.983Z,1.10
2019-05-30T09:07:25.189Z,1.33
2019-05-30T09:09:53.309Z,1.20
2019-05-30T09:12:21.491Z,1.40
2019-05-30T09:14:49.572Z,1.20
2019-05-30T09:17:17.610Z,1.07
2019-05-30T09:19:45.657Z,1.33
2019-05-30T09:22:13.871Z,1.00
2019-05-30T09:24:42.223Z,1.00
2019-05-30T09:27:10.339Z,1.20
2019-05-30T09:29:39.680Z,1.23
2019-05-30T09:32:08.167Z,1.20
2019-05-30T09:34:36.309Z,1.40
2019-05-30T09:37:04.426Z,1.60
2019-05-30T09:39:32.483Z,1.33
2019-05-30T09:42:00.679Z,1.10
2019-05-30T09:44:28.749Z,1.30
2019-05-30T09:46:56.835Z,1.30
2019-05-30T09:49:24.858Z,1.50
2019-05-30T09:51:52.922Z,1.30
2019-05-30T09:54:21.000Z,1.43
2019-05-30T09:56:49.071Z,1.00
2019-05-30T09:59:17.408Z,1.13
2019-05-30T10:01:46.027Z,1.50
2019-05-30T10:04:14.157Z,1.47
2019-05-30T10:06:43.321Z,1.30
2019-05-30T10:09:12.016Z,1.50
2019-05-30T10:11:40.168Z,1.40
2019-05-30T10:14:08.297Z,1.23
2019-05-30T10:16:36.409Z,1.00
2019-05-30T10:19:04.596Z,1.30
2019-05-30T10:21:32.775Z,1.10
2019-05-30T10:24:00.795Z,1.40
2019-05-30T10:26:29.041Z,1.47
2019-05-30T10:28:57.381Z,1.03
2019-05-30T10:31:25.618Z,1.40
2019-05-30T10:33:53.838Z,1.33
2019-05-30T10:36:21.959Z,1.30
2019-05-30T10:38:50.433Z,1.40
2019-05-30T10:41:19.338Z,1.20
2019-05-30T10:43:47.565Z,1.10
2019-05-30T10:46:15.734Z,1.20
2019-05-30T10:48:43.753Z,1.50
2019-05-30T10:51:13.463Z,1.23
2019-05-30T10:53:41.510Z,1.33
2019-05-30T10:56:09.543Z,1.40
2019-05-30T10:58:37.659Z,1.27
2019-05-30T11:01:06.571Z,1.23
2019-05-30T11:03:34.762Z,1.20
2019-05-30T11:06:15.039Z,1.43
2019-05-30T11:08:44.214Z,1.20
2019-05-30T11:11:12.373Z,1.60
2019-05-30T11:13:40.529Z,1.27
2019-05-30T11:16:09.912Z,1.30
2019-05-30T11:18:39.323Z,1.20
2019-05-30T11:21:07.360Z,1.27
2019-05-30T11:23:35.570Z,1.20
2019-05-30T11:26:03.741Z,1.30
2019-05-30T11:28:31.815Z,1.10
2019-05-30T11:31:04.191Z,1.30
2019-05-30T11:33:30.087Z,1.40
2019-05-30T11:35:59.246Z,1.47
2019-05-30T11:38:27.354Z,1.23
2019-05-30T11:40:55.567Z,1.20
2019-05-30T11:43:23.580Z,1.20
2019-05-30T11:45:51.762Z,1.30
2019-05-30T11:48:19.888Z,1.37
2019-05-30T11:50:48.071Z,1.30
2019-05-30T11:53:16.454Z,1.30
2019-05-30T11:55:44.709Z,1.20
2019-05-30T11:58:12.804Z,1.40
2019-05-30T12:00:41.169Z,1.10
2019-05-30T12:03:09.251Z,1.20
2019-05-30T12:05:37.434Z,1.30
2019-05-30T12:08:05.519Z,1.30
2019-05-30T12:10:33.662Z,1.30
2019-05-30T12:13:01.786Z,1.20
2019-05-30T12:15:29.870Z,1.27
2019-05-30T12:17:58.009Z,1.27
2019-05-30T12:20:26.305Z,1.30
2019-05-30T12:22:54.356Z,1.40
2019-05-30T12:25:22.706Z,1.37
2019-05-30T12:27:51.902Z,1.50
2019-05-30T12:30:20.588Z,1.40
2019-05-30T12:32:48.660Z,1.30
2019-05-30T12:35:17.628Z,1.10
2019-05-30T12:37:54.794Z,1.00
2019-05-30T12:40:17.089Z,1.10
2019-05-30T12:42:45.266Z,1.20
2019-05-30T12:45:13.901Z,1.30
2019-05-30T12:47:42.030Z,1.17
2019-05-30T12:50:10.565Z,1.13
2019-05-30T12:52:38.840Z,1.20
2019-05-30T12:55:07.011Z,1.30
2019-05-30T12:57:35.140Z,1.33
2019-05-30T13:00:09.575Z,1.20
2019-05-30T13:02:34.299Z,1.40
2019-05-30T13:05:03.118Z,1.07
2019-05-30T13:07:31.706Z,1.40
2019-05-30T13:10:01.208Z,1.40
2019-05-30T13:12:29.463Z,1.40
2019-05-30T13:14:57.636Z,1.20
2019-05-30T13:17:25.736Z,1.00
2019-05-30T13:19:54.985Z,1.20
2019-05-30T13:22:25.863Z,1.10
2019-05-30T13:24:55.406Z,1.50
2019-05-30T13:27:23.928Z,1.37
2019-05-30T13:29:52.010Z,1.20
2019-05-30T13:32:20.703Z,1.17
2019-05-30T13:34:48.806Z,1.43
2019-05-30T13:37:16.946Z,1.43
2019-05-30T13:39:44.994Z,1.53
2019-05-30T13:42:13.143Z,1.50
2019-05-30T13:44:41.290Z,1.50
2019-05-30T13:47:09.565Z,1.33
2019-05-30T13:49:37.616Z,1.47
2019-05-30T13:52:07.139Z,1.30
2019-05-30T13:54:35.345Z,1.30
2019-05-30T13:57:05.973Z,1.40
2019-05-30T13:59:34.093Z,1.30
2019-05-30T14:02:02.307Z,1.67
2019-05-30T14:04:30.370Z,1.30
2019-05-30T14:06:58.500Z,1.50
2019-05-30T14:09:26.591Z,1.87
2019-05-30T14:11:54.978Z,1.20
2019-05-30T14:14:23.169Z,1.30
2019-05-30T14:16:51.781Z,1.20
2019-05-30T14:19:19.822Z,1.43
2019-05-30T14:21:48.048Z,1.90
2019-05-30T14:24:16.244Z,1.47
2019-05-30T14:26:44.472Z,1.40
2019-05-30T14:29:12.595Z,1.40
2019-05-30T14:31:40.725Z,1.37
2019-05-30T14:34:08.763Z,1.40
2019-05-30T14:36:36.843Z,1.33
2019-05-30T14:39:06.859Z,1.50
2019-05-30T14:41:35.200Z,1.40
2019-05-30T14:44:05.088Z,1.80
2019-05-30T14:46:33.356Z,1.73
2019-05-30T14:49:01.612Z,1.27
2019-05-30T14:51:29.641Z,1.20
2019-05-30T14:53:57.702Z,1.50
2019-05-30T14:56:25.759Z,1.50
2019-05-30T14:58:53.895Z,1.50
2019-05-30T15:01:22.027Z,1.47
2019-05-30T15:03:50.120Z,1.27
2019-05-30T15:06:18.169Z,1.40
2019-05-30T15:08:46.317Z,1.70
2019-05-30T15:11:15.672Z,1.50
2019-05-30T15:13:44.126Z,1.50
2019-05-30T15:16:13.061Z,1.70
2019-05-30T15:18:41.170Z,1.80
2019-05-30T15:21:10.330Z,1.50
2019-05-30T15:23:38.414Z,1.50
2019-05-30T15:26:06.521Z,1.67
2019-05-30T15:28:34.610Z,1.43
2019-05-30T15:31:02.802Z,1.57
2019-05-30T15:33:30.836Z,1.80
2019-05-30T15:35:58.922Z,1.77
2019-05-30T15:38:27.415Z,1.90
2019-05-30T15:40:55.490Z,1.80
2019-05-30T15:43:23.704Z,1.90
2019-05-30T15:45:51.878Z,1.60
2019-05-30T15:48:20.001Z,1.50
2019-05-30T15:50:48.296Z,1.47
2019-05-30T15:53:17.638Z,1.60
2019-05-30T15:55:45.677Z,1.97
2019-05-30T15:58:14.053Z,1.80
2019-05-30T16:00:42.146Z,1.50
2019-05-30T16:03:10.510Z,1.70
2019-05-30T16:05:38.609Z,1.53
2019-05-30T16:08:09.207Z,1.77
2019-05-30T16:10:38.484Z,1.77
2019-05-30T16:13:06.574Z,1.57
2019-05-30T16:15:34.661Z,1.97
2019-05-30T16:18:02.913Z,1.60
2019-05-30T16:20:31.054Z,1.50
2019-05-30T16:22:59.243Z,1.60
2019-05-30T16:25:27.524Z,1.80
2019-05-30T16:27:55.710Z,1.47
2019-05-30T16:30:25.574Z,1.60
2019-05-30T16:32:54.055Z,1.73
2019-05-30T16:35:22.278Z,1.67
2019-05-30T16:37:50.567Z,1.67
2019-05-30T16:40:20.320Z,1.97
2019-05-30T16:42:48.496Z,2.33
2019-05-30T16:45:19.486Z,2.23
2019-05-30T16:47:49.138Z,1.80
2019-05-30T16:50:16.491Z,2.20
2019-05-30T16:52:44.633Z,1.83
2019-05-30T16:55:15.096Z,1.60
2019-05-30T16:57:43.394Z,2.63
2019-05-30T17:00:12.053Z,1.83
2019-05-30T17:02:40.170Z,2.03
2019-05-30T17:05:08.301Z,1.90
2019-05-30T17:07:36.390Z,2.07
2019-05-30T17:10:21.453Z,1.80
2019-05-30T17:12:35.652Z,2.63
2019-05-30T17:15:04.355Z,1.80
2019-05-30T17:17:32.440Z,2.37
2019-05-30T17:20:00.628Z,2.40
2019-05-30T17:22:30.580Z,2.43
2019-05-30T17:24:58.419Z,2.30
2019-05-30T17:27:26.479Z,2.40
2019-05-30T17:29:54.727Z,2.47
2019-05-30T17:32:23.878Z,2.50
2019-05-30T17:34:52.012Z,2.20
2019-05-30T17:37:20.310Z,2.27
2019-05-30T17:39:48.457Z,2.27
2019-05-30T17:42:16.577Z,1.97
2019-05-30T17:44:44.595Z,2.13
2019-05-30T17:47:12.939Z,2.20
2019-05-30T17:49:40.990Z,2.33
2019-05-30T17:52:09.048Z,2.40
2019-05-30T17:54:37.170Z,2.30
2019-05-30T17:57:05.196Z,2.50
2019-05-30T17:59:33.452Z,2.00
2019-05-30T18:02:01.655Z,1.90
2019-05-30T18:04:30.749Z,1.90
2019-05-30T18:06:58.957Z,1.93
2019-05-30T18:09:27.222Z,2.30
2019-05-30T18:11:55.238Z,2.33
2019-05-30T18:14:23.388Z,1.83
2019-05-30T18:16:51.549Z,1.93
2019-05-30T18:19:19.618Z,2.10
2019-05-30T18:21:47.762Z,1.87
2019-05-30T18:24:15.820Z,2.10
2019-05-30T18:26:43.837Z,2.13
2019-05-30T18:29:11.844Z,1.80
2019-05-30T18:31:40.054Z,1.90
2019-05-30T18:34:08.345Z,1.83
2019-05-30T18:36:36.422Z,1.57
2019-05-30T18:39:05.944Z,1.90
2019-05-30T18:41:34.030Z,1.87
2019-05-30T18:44:02.285Z,1.80
2019-05-30T18:46:33.433Z,1.80
2019-05-30T18:49:01.454Z,1.90
2019-05-30T18:51:30.341Z,2.10
2019-05-30T18:53:58.883Z,2.23
2019-05-30T18:56:27.037Z,1.87
2019-05-30T18:58:55.135Z,1.83
2019-05-30T19:01:23.302Z,2.10
2019-05-30T19:03:51.747Z,1.90
2019-05-30T19:06:19.795Z,1.80
2019-05-30T19:08:47.901Z,1.83
2019-05-30T19:11:27.128Z,2.00
2019-05-30T19:13:47.842Z,2.40
2019-05-30T19:16:16.055Z,1.60
2019-05-30T19:18:44.240Z,1.70
2019-05-30T19:21:12.361Z,1.83
2019-05-30T19:23:40.573Z,2.17
2019-05-30T19:26:08.801Z,2.20
2019-05-30T19:28:36.894Z,2.33
2019-05-30T19:31:05.192Z,2.27
2019-05-30T19:33:33.347Z,2.10
2019-05-30T19:36:01.418Z,2.17
2019-05-30T19:38:29.750Z,1.80
2019-05-30T19:40:57.993Z,2.00
2019-05-30T19:43:27.462Z,1.73
2019-05-30T19:45:55.956Z,1.93
2019-05-30T19:48:24.276Z,2.13
2019-05-30T19:50:52.384Z,2.00
2019-05-30T19:53:20.462Z,2.77
2019-05-30T19:55:48.615Z,2.10
2019-05-30T19:58:16.573Z,1.80
2019-05-30T20:00:57.919Z,1.80
2019-05-30T20:03:14.440Z,2.00
2019-05-30T20:05:42.546Z,2.47
2019-05-30T20:08:10.600Z,2.10
2019-05-30T20:10:39.214Z,2.00
2019-05-30T20:13:07.585Z,2.20
2019-05-30T20:15:35.662Z,2.00
2019-05-30T20:18:03.867Z,2.07
2019-05-30T20:20:49.513Z,2.13
2019-05-30T20:23:01.625Z,2.20
2019-05-30T20:25:29.729Z,2.17
2019-05-30T20:27:57.863Z,1.83
2019-05-30T20:30:25.960Z,1.97
2019-05-30T20:32:54.134Z,1.80
2019-05-30T20:35:22.228Z,2.03
2019-05-30T20:37:50.281Z,1.73
2019-05-30T20:40:18.348Z,2.00
2019-05-30T20:42:47.099Z,2.00
2019-05-30T20:45:15.867Z,1.70
2019-05-30T20:47:44.482Z,2.03
2019-05-30T20:50:15.046Z,1.80
2019-05-30T20:52:45.275Z,2.30
2019-05-30T20:55:12.892Z,2.20
2019-05-30T20:57:40.868Z,2.10
2019-05-30T21:00:09.733Z,2.20
2019-05-30T21:02:38.924Z,1.90
2019-05-30T21:05:07.721Z,2.00
2019-05-30T21:07:37.746Z,2.07
2019-05-30T21:10:06.217Z,2.27
2019-05-30T21:12:39.314Z,1.80
2019-05-30T21:15:05.356Z,1.90
2019-05-30T21:17:33.439Z,1.83
2019-05-30T21:20:01.462Z,2.33
2019-05-30T21:22:29.536Z,2.00
2019-05-30T21:24:57.588Z,2.53
2019-05-30T21:27:25.637Z,2.07
2019-05-30T21:29:53.766Z,2.30
2019-05-30T21:32:21.846Z,1.90
2019-05-30T21:34:50.151Z,1.83
2019-05-30T21:37:18.233Z,2.30
2019-05-30T21:39:46.308Z,2.00
2019-05-30T21:42:14.411Z,2.07
2019-05-30T21:44:42.725Z,2.10
2019-05-30T21:47:10.965Z,1.90
2019-05-30T21:49:39.026Z,1.83
2019-05-30T21:52:07.036Z,1.67
2019-05-30T21:54:35.035Z,2.20
2019-05-30T21:57:03.132Z,2.00
2019-05-30T21:59:31.183Z,1.97
2019-05-30T22:01:59.381Z,1.90
2019-05-30T22:04:27.493Z,1.83
2019-05-30T22:06:55.590Z,2.30
2019-05-30T22:09:23.698Z,2.10
2019-05-30T22:11:51.908Z,1.90
2019-05-30T22:14:20.090Z,2.20
2019-05-30T22:16:48.124Z,1.80
2019-05-30T22:19:16.121Z,1.80
2019-05-30T22:21:44.253Z,1.90
2019-05-30T22:24:12.294Z,1.80
2019-05-30T22:26:40.345Z,2.00
2019-05-30T22:29:08.384Z,1.93
2019-05-30T22:31:36.394Z,1.97
2019-05-30T22:34:04.514Z,1.83
2019-05-30T22:36:32.561Z,1.90
2019-05-30T22:39:00.563Z,2.17
2019-05-30T22:41:28.725Z,2.03
2019-05-30T22:43:57.004Z,2.17
2019-05-30T22:46:25.464Z,2.30
2019-05-30T22:48:53.555Z,2.90
2019-05-30T22:51:21.696Z,2.33
2019-05-30T22:53:50.944Z,2.30
2019-05-30T22:56:19.241Z,2.30
2019-05-30T22:58:47.865Z,1.90
2019-05-30T23:01:16.065Z,2.23
2019-05-30T23:03:45.025Z,2.60
2019-05-30T23:06:13.420Z,2.27
2019-05-30T23:08:41.436Z,2.47
2019-05-30T23:11:09.516Z,2.70
2019-05-30T23:13:40.464Z,2.90
2019-05-30T23:16:07.292Z,2.50
2019-05-30T23:18:35.360Z,2.80
2019-05-30T23:21:03.453Z,3.50
2019-05-30T23:23:31.538Z,3.23
2019-05-30T23:25:59.504Z,2.63
2019-05-30T23:28:27.568Z,3.07
2019-05-30T23:30:56.112Z,3.03
2019-05-30T23:33:25.134Z,3.10
2019-05-30T23:35:54.569Z,2.97
2019-05-30T23:38:22.625Z,2.87
2019-05-30T23:40:51.024Z,2.60
2019-05-30T23:43:19.476Z,3.30
2019-05-30T23:45:47.491Z,2.60
2019-05-30T23:48:15.574Z,3.37
2019-05-30T23:50:43.575Z,2.87
2019-05-30T23:53:11.656Z,2.50
2019-05-30T23:55:39.684Z,2.70
2019-05-30T23:58:07.844Z,2.60
